sensor_id;sensor_type;location;lat;lon;timestamp;P1;durP1;ratioP1;P2;durP2;ratioP2
22786;SDS011;63134;52.020;4.714;2023-05-14T00:01:12;29.45;;;22.15;;
22786;SDS011;63134;52.020;4.714;2023-05-14T00:03:58;38.30;;;23.48;;
22786;SDS011;63134;52.020;4.714;2023-05-14T00:06:45;30.70;;;23.27;;
22786;SDS011;63134;52.020;4.714;2023-05-14T00:09:31;36.53;;;23.02;;
22786;SDS011;63134;52.020;4.714;2023-05-14T00:12:17;34.90;;;23.17;;
22786;SDS011;63134;52.020;4.714;2023-05-14T00:15:02;28.05;;;22.08;;
22786;SDS011;63134;52.020;4.714;2023-05-14T00:17:48;36.45;;;22.80;;
22786;SDS011;63134;52.020;4.714;2023-05-14T00:20:33;34.30;;;22.50;;
22786;SDS011;63134;52.020;4.714;2023-05-14T00:23:19;29.25;;;21.52;;
22786;SDS011;63134;52.020;4.714;2023-05-14T00:26:09;32.30;;;21.73;;
22786;SDS011;63134;52.020;4.714;2023-05-14T00:28:56;35.17;;;21.45;;
22786;SDS011;63134;52.020;4.714;2023-05-14T00:31:41;29.77;;;22.05;;
22786;SDS011;63134;52.020;4.714;2023-05-14T00:34:27;26.40;;;21.38;;
22786;SDS011;63134;52.020;4.714;2023-05-14T00:37:14;29.08;;;21.65;;
22786;SDS011;63134;52.020;4.714;2023-05-14T00:40:03;29.95;;;21.15;;
22786;SDS011;63134;52.020;4.714;2023-05-14T00:42:50;30.08;;;20.60;;
22786;SDS011;63134;52.020;4.714;2023-05-14T00:45:37;33.28;;;22.35;;
22786;SDS011;63134;52.020;4.714;2023-05-14T00:48:24;26.35;;;19.90;;
22786;SDS011;63134;52.020;4.714;2023-05-14T00:51:10;29.88;;;20.98;;
22786;SDS011;63134;52.020;4.714;2023-05-14T00:53:55;30.75;;;21.35;;
22786;SDS011;63134;52.020;4.714;2023-05-14T00:56:44;31.55;;;22.60;;
22786;SDS011;63134;52.020;4.714;2023-05-14T00:59:31;26.48;;;20.67;;
22786;SDS011;63134;52.020;4.714;2023-05-14T01:02:16;35.53;;;21.60;;
22786;SDS011;63134;52.020;4.714;2023-05-14T01:05:03;31.05;;;22.77;;
22786;SDS011;63134;52.020;4.714;2023-05-14T01:14:31;29.80;;;23.13;;
22786;SDS011;63134;52.020;4.714;2023-05-14T01:17:31;32.65;;;22.80;;
22786;SDS011;63134;52.020;4.714;2023-05-14T01:20:21;33.50;;;23.92;;
22786;SDS011;63134;52.020;4.714;2023-05-14T01:23:10;34.05;;;23.35;;
22786;SDS011;63134;52.020;4.714;2023-05-14T01:25:56;34.60;;;23.55;;
22786;SDS011;63134;52.020;4.714;2023-05-14T01:28:42;29.77;;;22.38;;
22786;SDS011;63134;52.020;4.714;2023-05-14T01:31:28;29.50;;;23.65;;
22786;SDS011;63134;52.020;4.714;2023-05-14T01:34:18;36.50;;;23.27;;
22786;SDS011;63134;52.020;4.714;2023-05-14T01:37:06;43.90;;;24.88;;
22786;SDS011;63134;52.020;4.714;2023-05-14T01:39:54;28.50;;;22.88;;
22786;SDS011;63134;52.020;4.714;2023-05-14T01:42:40;39.00;;;22.27;;
22786;SDS011;63134;52.020;4.714;2023-05-14T01:45:28;31.55;;;22.90;;
22786;SDS011;63134;52.020;4.714;2023-05-14T01:48:14;32.33;;;23.50;;
22786;SDS011;63134;52.020;4.714;2023-05-14T01:51:00;33.05;;;23.13;;
22786;SDS011;63134;52.020;4.714;2023-05-14T01:53:46;32.05;;;22.45;;
22786;SDS011;63134;52.020;4.714;2023-05-14T01:56:32;34.33;;;23.55;;
22786;SDS011;63134;52.020;4.714;2023-05-14T01:59:17;36.63;;;24.25;;
22786;SDS011;63134;52.020;4.714;2023-05-14T02:02:02;35.63;;;23.50;;
22786;SDS011;63134;52.020;4.714;2023-05-14T02:04:49;34.20;;;23.85;;
22786;SDS011;63134;52.020;4.714;2023-05-14T02:07:39;30.88;;;21.88;;
22786;SDS011;63134;52.020;4.714;2023-05-14T02:10:29;34.20;;;23.40;;
22786;SDS011;63134;52.020;4.714;2023-05-14T02:13:15;29.00;;;23.08;;
22786;SDS011;63134;52.020;4.714;2023-05-14T02:16:00;36.17;;;24.45;;
22786;SDS011;63134;52.020;4.714;2023-05-14T02:18:48;33.03;;;23.50;;
22786;SDS011;63134;52.020;4.714;2023-05-14T02:21:33;37.25;;;23.98;;
22786;SDS011;63134;52.020;4.714;2023-05-14T02:24:19;36.90;;;24.98;;
22786;SDS011;63134;52.020;4.714;2023-05-14T02:27:05;32.30;;;24.17;;
22786;SDS011;63134;52.020;4.714;2023-05-14T02:29:51;32.45;;;24.10;;
22786;SDS011;63134;52.020;4.714;2023-05-14T02:32:37;34.75;;;25.65;;
22786;SDS011;63134;52.020;4.714;2023-05-14T02:35:26;41.50;;;25.58;;
22786;SDS011;63134;52.020;4.714;2023-05-14T02:38:13;35.50;;;25.98;;
22786;SDS011;63134;52.020;4.714;2023-05-14T02:40:58;43.42;;;28.38;;
22786;SDS011;63134;52.020;4.714;2023-05-14T02:43:44;41.58;;;28.15;;
22786;SDS011;63134;52.020;4.714;2023-05-14T02:46:31;39.95;;;29.23;;
22786;SDS011;63134;52.020;4.714;2023-05-14T02:49:18;45.78;;;29.95;;
22786;SDS011;63134;52.020;4.714;2023-05-14T02:52:04;49.53;;;31.02;;
22786;SDS011;63134;52.020;4.714;2023-05-14T02:54:50;43.78;;;31.00;;
22786;SDS011;63134;52.020;4.714;2023-05-14T02:57:35;45.53;;;30.35;;
22786;SDS011;63134;52.020;4.714;2023-05-14T03:00:21;49.28;;;32.78;;
22786;SDS011;63134;52.020;4.714;2023-05-14T03:03:07;47.28;;;31.50;;
22786;SDS011;63134;52.020;4.714;2023-05-14T03:05:53;51.80;;;32.38;;
22786;SDS011;63134;52.020;4.714;2023-05-14T03:08:39;49.45;;;33.65;;
22786;SDS011;63134;52.020;4.714;2023-05-14T03:11:26;57.90;;;36.22;;
22786;SDS011;63134;52.020;4.714;2023-05-14T03:14:18;52.22;;;33.60;;
22786;SDS011;63134;52.020;4.714;2023-05-14T03:17:04;53.00;;;35.20;;
22786;SDS011;63134;52.020;4.714;2023-05-14T03:19:49;54.28;;;33.70;;
22786;SDS011;63134;52.020;4.714;2023-05-14T03:22:36;54.28;;;34.42;;
22786;SDS011;63134;52.020;4.714;2023-05-14T03:25:21;57.88;;;34.38;;
22786;SDS011;63134;52.020;4.714;2023-05-14T03:28:07;51.47;;;34.50;;
22786;SDS011;63134;52.020;4.714;2023-05-14T03:30:56;51.88;;;34.95;;
22786;SDS011;63134;52.020;4.714;2023-05-14T03:33:43;53.17;;;35.88;;
22786;SDS011;63134;52.020;4.714;2023-05-14T03:36:32;57.35;;;36.10;;
22786;SDS011;63134;52.020;4.714;2023-05-14T03:39:19;60.72;;;36.17;;
22786;SDS011;63134;52.020;4.714;2023-05-14T03:42:06;54.97;;;34.33;;
22786;SDS011;63134;52.020;4.714;2023-05-14T03:44:54;49.47;;;34.05;;
22786;SDS011;63134;52.020;4.714;2023-05-14T03:47:39;57.00;;;35.17;;
22786;SDS011;63134;52.020;4.714;2023-05-14T03:50:25;51.75;;;35.25;;
22786;SDS011;63134;52.020;4.714;2023-05-14T03:53:12;50.40;;;34.28;;
22786;SDS011;63134;52.020;4.714;2023-05-14T03:55:58;48.30;;;34.58;;
22786;SDS011;63134;52.020;4.714;2023-05-14T03:58:44;51.90;;;33.50;;
22786;SDS011;63134;52.020;4.714;2023-05-14T04:01:31;59.53;;;34.10;;
22786;SDS011;63134;52.020;4.714;2023-05-14T04:04:19;49.85;;;32.63;;
22786;SDS011;63134;52.020;4.714;2023-05-14T04:07:08;52.88;;;35.47;;
22786;SDS011;63134;52.020;4.714;2023-05-14T04:10:01;52.03;;;32.03;;
22786;SDS011;63134;52.020;4.714;2023-05-14T04:12:51;49.45;;;32.00;;
22786;SDS011;63134;52.020;4.714;2023-05-14T04:15:37;47.08;;;32.45;;
22786;SDS011;63134;52.020;4.714;2023-05-14T04:18:23;48.70;;;33.03;;
22786;SDS011;63134;52.020;4.714;2023-05-14T04:21:09;44.75;;;31.85;;
22786;SDS011;63134;52.020;4.714;2023-05-14T04:24:00;41.95;;;30.35;;
22786;SDS011;63134;52.020;4.714;2023-05-14T04:26:50;46.85;;;31.58;;
22786;SDS011;63134;52.020;4.714;2023-05-14T04:29:39;46.97;;;30.98;;
22786;SDS011;63134;52.020;4.714;2023-05-14T04:32:27;40.75;;;28.83;;
22786;SDS011;63134;52.020;4.714;2023-05-14T04:35:14;45.95;;;29.48;;
22786;SDS011;63134;52.020;4.714;2023-05-14T04:38:02;42.35;;;28.45;;
22786;SDS011;63134;52.020;4.714;2023-05-14T04:40:48;38.83;;;26.98;;
22786;SDS011;63134;52.020;4.714;2023-05-14T04:43:34;39.33;;;28.80;;
22786;SDS011;63134;52.020;4.714;2023-05-14T04:46:21;42.42;;;28.15;;
22786;SDS011;63134;52.020;4.714;2023-05-14T04:49:07;39.72;;;28.70;;
22786;SDS011;63134;52.020;4.714;2023-05-14T04:51:53;41.25;;;28.45;;
22786;SDS011;63134;52.020;4.714;2023-05-14T04:54:38;34.63;;;27.77;;
22786;SDS011;63134;52.020;4.714;2023-05-14T04:57:24;40.42;;;26.30;;
22786;SDS011;63134;52.020;4.714;2023-05-14T05:00:13;39.60;;;25.77;;
22786;SDS011;63134;52.020;4.714;2023-05-14T05:03:02;36.95;;;26.45;;
22786;SDS011;63134;52.020;4.714;2023-05-14T05:05:49;38.42;;;27.25;;
22786;SDS011;63134;52.020;4.714;2023-05-14T05:08:36;41.30;;;26.67;;
22786;SDS011;63134;52.020;4.714;2023-05-14T05:11:22;46.25;;;29.42;;
22786;SDS011;63134;52.020;4.714;2023-05-14T05:14:07;42.90;;;29.42;;
22786;SDS011;63134;52.020;4.714;2023-05-14T05:16:54;38.42;;;27.23;;
22786;SDS011;63134;52.020;4.714;2023-05-14T05:19:40;45.47;;;28.33;;
22786;SDS011;63134;52.020;4.714;2023-05-14T05:22:28;44.10;;;28.42;;
22786;SDS011;63134;52.020;4.714;2023-05-14T05:25:14;39.92;;;28.88;;
22786;SDS011;63134;52.020;4.714;2023-05-14T05:27:59;44.20;;;29.67;;
22786;SDS011;63134;52.020;4.714;2023-05-14T05:30:45;44.22;;;29.92;;
22786;SDS011;63134;52.020;4.714;2023-05-14T05:33:31;43.85;;;29.67;;
22786;SDS011;63134;52.020;4.714;2023-05-14T05:36:17;43.13;;;30.02;;
22786;SDS011;63134;52.020;4.714;2023-05-14T05:39:04;47.88;;;29.63;;
22786;SDS011;63134;52.020;4.714;2023-05-14T05:41:55;40.63;;;29.52;;
22786;SDS011;63134;52.020;4.714;2023-05-14T05:44:43;50.05;;;30.98;;
22786;SDS011;63134;52.020;4.714;2023-05-14T05:47:30;46.35;;;30.77;;
22786;SDS011;63134;52.020;4.714;2023-05-14T05:50:16;43.33;;;29.92;;
22786;SDS011;63134;52.020;4.714;2023-05-14T05:53:03;41.13;;;30.60;;
22786;SDS011;63134;52.020;4.714;2023-05-14T05:55:49;48.80;;;29.88;;
22786;SDS011;63134;52.020;4.714;2023-05-14T05:58:35;48.03;;;31.05;;
22786;SDS011;63134;52.020;4.714;2023-05-14T06:01:23;37.70;;;29.25;;
22786;SDS011;63134;52.020;4.714;2023-05-14T06:04:09;45.35;;;31.08;;
22786;SDS011;63134;52.020;4.714;2023-05-14T06:06:58;46.63;;;32.28;;
22786;SDS011;63134;52.020;4.714;2023-05-14T06:09:44;48.85;;;32.95;;
22786;SDS011;63134;52.020;4.714;2023-05-14T06:12:30;48.67;;;34.92;;
22786;SDS011;63134;52.020;4.714;2023-05-14T06:15:16;42.53;;;32.38;;
22786;SDS011;63134;52.020;4.714;2023-05-14T06:18:02;48.97;;;32.10;;
22786;SDS011;63134;52.020;4.714;2023-05-14T06:20:47;47.75;;;33.67;;
22786;SDS011;63134;52.020;4.714;2023-05-14T06:23:33;43.10;;;31.65;;
22786;SDS011;63134;52.020;4.714;2023-05-14T06:26:21;37.65;;;30.23;;
22786;SDS011;63134;52.020;4.714;2023-05-14T06:29:08;41.03;;;31.95;;
22786;SDS011;63134;52.020;4.714;2023-05-14T06:31:59;44.45;;;30.95;;
22786;SDS011;63134;52.020;4.714;2023-05-14T06:34:45;42.03;;;31.90;;
22786;SDS011;63134;52.020;4.714;2023-05-14T06:37:31;41.85;;;31.15;;
22786;SDS011;63134;52.020;4.714;2023-05-14T06:40:18;45.53;;;32.47;;
22786;SDS011;63134;52.020;4.714;2023-05-14T06:43:04;39.17;;;31.15;;
22786;SDS011;63134;52.020;4.714;2023-05-14T06:45:50;40.88;;;30.85;;
22786;SDS011;63134;52.020;4.714;2023-05-14T06:48:36;37.38;;;30.88;;
22786;SDS011;63134;52.020;4.714;2023-05-14T06:51:21;39.95;;;31.05;;
22786;SDS011;63134;52.020;4.714;2023-05-14T06:54:07;45.83;;;31.13;;
22786;SDS011;63134;52.020;4.714;2023-05-14T06:56:55;38.83;;;30.77;;
22786;SDS011;63134;52.020;4.714;2023-05-14T06:59:41;37.95;;;30.60;;
22786;SDS011;63134;52.020;4.714;2023-05-14T07:02:31;36.83;;;29.55;;
22786;SDS011;63134;52.020;4.714;2023-05-14T07:05:20;37.53;;;28.60;;
22786;SDS011;63134;52.020;4.714;2023-05-14T07:08:07;41.35;;;28.25;;
22786;SDS011;63134;52.020;4.714;2023-05-14T07:10:52;35.28;;;27.83;;
22786;SDS011;63134;52.020;4.714;2023-05-14T07:13:38;35.15;;;26.90;;
22786;SDS011;63134;52.020;4.714;2023-05-14T07:16:24;37.22;;;27.10;;
22786;SDS011;63134;52.020;4.714;2023-05-14T07:19:11;31.30;;;24.13;;
22786;SDS011;63134;52.020;4.714;2023-05-14T07:21:56;32.85;;;24.25;;
22786;SDS011;63134;52.020;4.714;2023-05-14T07:24:42;32.72;;;24.05;;
22786;SDS011;63134;52.020;4.714;2023-05-14T07:27:28;26.65;;;23.65;;
22786;SDS011;63134;52.020;4.714;2023-05-14T07:30:13;28.95;;;24.08;;
22786;SDS011;63134;52.020;4.714;2023-05-14T07:32:59;27.83;;;22.88;;
22786;SDS011;63134;52.020;4.714;2023-05-14T07:35:45;28.30;;;22.67;;
22786;SDS011;63134;52.020;4.714;2023-05-14T07:38:30;26.33;;;21.95;;
22786;SDS011;63134;52.020;4.714;2023-05-14T07:41:16;28.08;;;21.33;;
22786;SDS011;63134;52.020;4.714;2023-05-14T07:44:02;32.13;;;23.33;;
22786;SDS011;63134;52.020;4.714;2023-05-14T07:46:49;30.92;;;21.58;;
22786;SDS011;63134;52.020;4.714;2023-05-14T07:49:34;26.67;;;20.90;;
22786;SDS011;63134;52.020;4.714;2023-05-14T07:52:19;31.50;;;21.52;;
22786;SDS011;63134;52.020;4.714;2023-05-14T07:55:05;24.35;;;19.20;;
22786;SDS011;63134;52.020;4.714;2023-05-14T07:57:51;27.60;;;18.42;;
22786;SDS011;63134;52.020;4.714;2023-05-14T08:00:57;26.45;;;18.05;;
22786;SDS011;63134;52.020;4.714;2023-05-14T08:03:42;23.52;;;17.92;;
22786;SDS011;63134;52.020;4.714;2023-05-14T08:06:27;28.95;;;18.90;;
22786;SDS011;63134;52.020;4.714;2023-05-14T08:09:13;24.13;;;19.00;;
22786;SDS011;63134;52.020;4.714;2023-05-14T08:11:59;25.98;;;18.70;;
22786;SDS011;63134;52.020;4.714;2023-05-14T08:14:47;23.00;;;18.00;;
22786;SDS011;63134;52.020;4.714;2023-05-14T08:17:33;21.98;;;17.98;;
22786;SDS011;63134;52.020;4.714;2023-05-14T08:20:18;23.02;;;18.15;;
22786;SDS011;63134;52.020;4.714;2023-05-14T08:23:04;28.17;;;16.73;;
22786;SDS011;63134;52.020;4.714;2023-05-14T08:25:51;18.65;;;15.93;;
22786;SDS011;63134;52.020;4.714;2023-05-14T08:28:36;23.08;;;17.10;;
22786;SDS011;63134;52.020;4.714;2023-05-14T08:31:21;26.80;;;16.27;;
22786;SDS011;63134;52.020;4.714;2023-05-14T08:34:07;20.73;;;14.93;;
22786;SDS011;63134;52.020;4.714;2023-05-14T08:36:53;24.60;;;15.25;;
22786;SDS011;63134;52.020;4.714;2023-05-14T08:39:41;26.08;;;15.32;;
22786;SDS011;63134;52.020;4.714;2023-05-14T08:42:26;21.38;;;15.23;;
22786;SDS011;63134;52.020;4.714;2023-05-14T08:45:20;25.38;;;15.65;;
22786;SDS011;63134;52.020;4.714;2023-05-14T08:48:09;23.30;;;15.23;;
22786;SDS011;63134;52.020;4.714;2023-05-14T08:51:02;22.60;;;14.23;;
22786;SDS011;63134;52.020;4.714;2023-05-14T08:53:47;20.95;;;13.70;;
22786;SDS011;63134;52.020;4.714;2023-05-14T08:56:33;22.27;;;15.02;;
22786;SDS011;63134;52.020;4.714;2023-05-14T08:59:19;18.65;;;13.93;;
22786;SDS011;63134;52.020;4.714;2023-05-14T09:02:05;24.50;;;15.38;;
22786;SDS011;63134;52.020;4.714;2023-05-14T09:04:54;25.67;;;14.25;;
22786;SDS011;63134;52.020;4.714;2023-05-14T09:07:40;18.90;;;14.18;;
22786;SDS011;63134;52.020;4.714;2023-05-14T09:10:26;18.58;;;14.48;;
22786;SDS011;63134;52.020;4.714;2023-05-14T09:13:11;21.50;;;13.63;;
22786;SDS011;63134;52.020;4.714;2023-05-14T09:15:57;19.67;;;13.20;;
22786;SDS011;63134;52.020;4.714;2023-05-14T09:18:44;15.93;;;13.43;;
22786;SDS011;63134;52.020;4.714;2023-05-14T09:21:29;23.30;;;13.18;;
22786;SDS011;63134;52.020;4.714;2023-05-14T09:24:21;23.70;;;13.48;;
22786;SDS011;63134;52.020;4.714;2023-05-14T09:27:08;19.88;;;13.23;;
22786;SDS011;63134;52.020;4.714;2023-05-14T09:30:09;21.10;;;14.07;;
22786;SDS011;63134;52.020;4.714;2023-05-14T09:32:56;26.27;;;14.52;;
22786;SDS011;63134;52.020;4.714;2023-05-14T09:35:41;20.23;;;14.77;;
22786;SDS011;63134;52.020;4.714;2023-05-14T09:38:30;20.27;;;11.93;;
22786;SDS011;63134;52.020;4.714;2023-05-14T09:41:17;19.98;;;14.02;;
22786;SDS011;63134;52.020;4.714;2023-05-14T09:44:03;25.58;;;14.95;;
22786;SDS011;63134;52.020;4.714;2023-05-14T09:46:51;24.23;;;14.18;;
22786;SDS011;63134;52.020;4.714;2023-05-14T09:49:37;22.23;;;13.88;;
22786;SDS011;63134;52.020;4.714;2023-05-14T09:52:24;24.08;;;14.15;;
22786;SDS011;63134;52.020;4.714;2023-05-14T09:55:09;26.20;;;13.32;;
22786;SDS011;63134;52.020;4.714;2023-05-14T09:57:55;26.05;;;14.18;;
22786;SDS011;63134;52.020;4.714;2023-05-14T10:00:42;23.52;;;13.35;;
22786;SDS011;63134;52.020;4.714;2023-05-14T10:03:29;19.83;;;12.27;;
22786;SDS011;63134;52.020;4.714;2023-05-14T10:06:16;25.02;;;13.43;;
22786;SDS011;63134;52.020;4.714;2023-05-14T10:09:03;17.17;;;11.18;;
22786;SDS011;63134;52.020;4.714;2023-05-14T10:11:52;22.45;;;12.93;;
22786;SDS011;63134;52.020;4.714;2023-05-14T10:14:45;20.13;;;11.52;;
22786;SDS011;63134;52.020;4.714;2023-05-14T10:17:37;25.30;;;11.60;;
22786;SDS011;63134;52.020;4.714;2023-05-14T10:20:27;17.98;;;11.50;;
22786;SDS011;63134;52.020;4.714;2023-05-14T10:23:15;20.75;;;12.20;;
22786;SDS011;63134;52.020;4.714;2023-05-14T10:26:01;18.25;;;11.50;;
22786;SDS011;63134;52.020;4.714;2023-05-14T10:28:48;23.83;;;11.07;;
22786;SDS011;63134;52.020;4.714;2023-05-14T10:31:46;20.70;;;10.27;;
22786;SDS011;63134;52.020;4.714;2023-05-14T10:34:39;16.50;;;10.13;;
22786;SDS011;63134;52.020;4.714;2023-05-14T10:37:27;18.63;;;10.15;;
22786;SDS011;63134;52.020;4.714;2023-05-14T10:40:14;16.60;;;8.98;;
22786;SDS011;63134;52.020;4.714;2023-05-14T10:43:02;17.95;;;8.90;;
22786;SDS011;63134;52.020;4.714;2023-05-14T10:45:48;17.02;;;8.88;;
22786;SDS011;63134;52.020;4.714;2023-05-14T10:48:35;17.63;;;8.65;;
22786;SDS011;63134;52.020;4.714;2023-05-14T10:51:23;15.00;;;7.15;;
22786;SDS011;63134;52.020;4.714;2023-05-14T10:54:11;16.20;;;7.20;;
22786;SDS011;63134;52.020;4.714;2023-05-14T10:56:57;13.57;;;7.63;;
22786;SDS011;63134;52.020;4.714;2023-05-14T10:59:45;21.25;;;8.65;;
22786;SDS011;63134;52.020;4.714;2023-05-14T11:02:32;17.15;;;8.13;;
22786;SDS011;63134;52.020;4.714;2023-05-14T11:05:21;16.05;;;6.32;;
22786;SDS011;63134;52.020;4.714;2023-05-14T11:08:07;16.48;;;7.53;;
22786;SDS011;63134;52.020;4.714;2023-05-14T11:10:54;14.35;;;6.25;;
22786;SDS011;63134;52.020;4.714;2023-05-14T11:13:39;15.32;;;7.13;;
22786;SDS011;63134;52.020;4.714;2023-05-14T11:16:26;21.77;;;6.22;;
22786;SDS011;63134;52.020;4.714;2023-05-14T11:19:16;11.95;;;5.82;;
22786;SDS011;63134;52.020;4.714;2023-05-14T11:22:05;18.20;;;5.88;;
22786;SDS011;63134;52.020;4.714;2023-05-14T11:24:52;15.73;;;5.63;;
22786;SDS011;63134;52.020;4.714;2023-05-14T11:27:39;17.77;;;6.43;;
22786;SDS011;63134;52.020;4.714;2023-05-14T11:30:25;10.32;;;5.75;;
22786;SDS011;63134;52.020;4.714;2023-05-14T11:33:10;10.70;;;5.65;;
22786;SDS011;63134;52.020;4.714;2023-05-14T11:35:57;16.08;;;6.57;;
22786;SDS011;63134;52.020;4.714;2023-05-14T11:38:45;12.10;;;5.28;;
22786;SDS011;63134;52.020;4.714;2023-05-14T11:41:32;14.55;;;5.25;;
22786;SDS011;63134;52.020;4.714;2023-05-14T11:44:18;13.70;;;5.72;;
22786;SDS011;63134;52.020;4.714;2023-05-14T11:47:04;13.05;;;4.97;;
22786;SDS011;63134;52.020;4.714;2023-05-14T11:49:50;11.93;;;5.10;;
22786;SDS011;63134;52.020;4.714;2023-05-14T11:52:37;11.68;;;4.60;;
22786;SDS011;63134;52.020;4.714;2023-05-14T11:55:27;10.38;;;5.53;;
22786;SDS011;63134;52.020;4.714;2023-05-14T11:58:13;9.88;;;5.22;;
22786;SDS011;63134;52.020;4.714;2023-05-14T12:01:00;12.93;;;4.88;;
22786;SDS011;63134;52.020;4.714;2023-05-14T12:03:46;13.90;;;5.22;;
22786;SDS011;63134;52.020;4.714;2023-05-14T12:06:32;13.73;;;4.97;;
22786;SDS011;63134;52.020;4.714;2023-05-14T12:09:18;11.00;;;5.53;;
22786;SDS011;63134;52.020;4.714;2023-05-14T12:12:10;17.20;;;5.63;;
22786;SDS011;63134;52.020;4.714;2023-05-14T12:14:59;11.40;;;4.78;;
22786;SDS011;63134;52.020;4.714;2023-05-14T12:17:48;14.25;;;5.63;;
22786;SDS011;63134;52.020;4.714;2023-05-14T12:20:35;9.38;;;4.22;;
22786;SDS011;63134;52.020;4.714;2023-05-14T12:23:39;10.95;;;5.60;;
22786;SDS011;63134;52.020;4.714;2023-05-14T12:26:25;16.27;;;5.20;;
22786;SDS011;63134;52.020;4.714;2023-05-14T12:29:13;9.98;;;5.15;;
22786;SDS011;63134;52.020;4.714;2023-05-14T12:31:59;11.68;;;5.35;;
22786;SDS011;63134;52.020;4.714;2023-05-14T12:34:48;10.65;;;4.90;;
22786;SDS011;63134;52.020;4.714;2023-05-14T12:37:34;11.77;;;5.22;;
22786;SDS011;63134;52.020;4.714;2023-05-14T12:40:24;13.75;;;4.95;;
22786;SDS011;63134;52.020;4.714;2023-05-14T12:43:10;12.05;;;5.65;;
22786;SDS011;63134;52.020;4.714;2023-05-14T12:45:55;14.95;;;4.93;;
22786;SDS011;63134;52.020;4.714;2023-05-14T12:48:41;18.90;;;5.30;;
22786;SDS011;63134;52.020;4.714;2023-05-14T12:51:26;14.32;;;5.00;;
22786;SDS011;63134;52.020;4.714;2023-05-14T12:54:11;17.98;;;5.80;;
22786;SDS011;63134;52.020;4.714;2023-05-14T12:56:59;12.93;;;4.75;;
22786;SDS011;63134;52.020;4.714;2023-05-14T12:59:47;15.90;;;5.03;;
22786;SDS011;63134;52.020;4.714;2023-05-14T13:02:36;16.25;;;5.13;;
22786;SDS011;63134;52.020;4.714;2023-05-14T13:05:27;15.75;;;5.40;;
22786;SDS011;63134;52.020;4.714;2023-05-14T13:08:12;14.68;;;5.38;;
22786;SDS011;63134;52.020;4.714;2023-05-14T13:11:01;14.75;;;5.30;;
22786;SDS011;63134;52.020;4.714;2023-05-14T13:13:50;18.83;;;5.75;;
22786;SDS011;63134;52.020;4.714;2023-05-14T13:16:35;14.40;;;4.78;;
22786;SDS011;63134;52.020;4.714;2023-05-14T13:19:21;17.17;;;5.60;;
22786;SDS011;63134;52.020;4.714;2023-05-14T13:22:06;14.55;;;5.65;;
22786;SDS011;63134;52.020;4.714;2023-05-14T13:24:52;12.13;;;5.95;;
22786;SDS011;63134;52.020;4.714;2023-05-14T13:27:38;14.13;;;4.65;;
22786;SDS011;63134;52.020;4.714;2023-05-14T13:30:23;16.05;;;5.47;;
22786;SDS011;63134;52.020;4.714;2023-05-14T13:33:08;17.33;;;5.18;;
22786;SDS011;63134;52.020;4.714;2023-05-14T13:35:54;19.48;;;5.22;;
22786;SDS011;63134;52.020;4.714;2023-05-14T13:38:39;12.15;;;5.28;;
22786;SDS011;63134;52.020;4.714;2023-05-14T13:41:25;19.60;;;6.18;;
22786;SDS011;63134;52.020;4.714;2023-05-14T13:44:13;16.45;;;5.32;;
22786;SDS011;63134;52.020;4.714;2023-05-14T13:46:58;16.17;;;5.75;;
22786;SDS011;63134;52.020;4.714;2023-05-14T13:49:44;18.02;;;5.10;;
22786;SDS011;63134;52.020;4.714;2023-05-14T13:52:29;15.68;;;5.35;;
22786;SDS011;63134;52.020;4.714;2023-05-14T13:55:15;21.23;;;4.57;;
22786;SDS011;63134;52.020;4.714;2023-05-14T13:58:01;13.70;;;5.40;;
22786;SDS011;63134;52.020;4.714;2023-05-14T14:00:47;20.25;;;4.95;;
22786;SDS011;63134;52.020;4.714;2023-05-14T14:03:34;13.68;;;5.28;;
22786;SDS011;63134;52.020;4.714;2023-05-14T14:06:19;17.05;;;5.40;;
22786;SDS011;63134;52.020;4.714;2023-05-14T14:09:05;15.02;;;5.10;;
22786;SDS011;63134;52.020;4.714;2023-05-14T14:11:50;19.08;;;5.03;;
22786;SDS011;63134;52.020;4.714;2023-05-14T14:14:36;16.27;;;5.75;;
22786;SDS011;63134;52.020;4.714;2023-05-14T14:17:22;15.98;;;4.90;;
22786;SDS011;63134;52.020;4.714;2023-05-14T14:20:07;17.50;;;5.25;;
22786;SDS011;63134;52.020;4.714;2023-05-14T14:22:54;16.67;;;5.68;;
22786;SDS011;63134;52.020;4.714;2023-05-14T14:25:39;21.00;;;4.82;;
22786;SDS011;63134;52.020;4.714;2023-05-14T14:28:25;13.07;;;4.25;;
22786;SDS011;63134;52.020;4.714;2023-05-14T14:31:10;17.85;;;5.30;;
22786;SDS011;63134;52.020;4.714;2023-05-14T14:33:56;16.67;;;5.45;;
22786;SDS011;63134;52.020;4.714;2023-05-14T14:36:42;14.50;;;5.28;;
22786;SDS011;63134;52.020;4.714;2023-05-14T14:39:27;15.38;;;5.90;;
22786;SDS011;63134;52.020;4.714;2023-05-14T14:42:12;17.63;;;6.10;;
22786;SDS011;63134;52.020;4.714;2023-05-14T14:44:58;17.58;;;6.30;;
22786;SDS011;63134;52.020;4.714;2023-05-14T14:47:44;19.75;;;5.40;;
22786;SDS011;63134;52.020;4.714;2023-05-14T14:50:32;13.75;;;5.50;;
22786;SDS011;63134;52.020;4.714;2023-05-14T14:53:18;26.25;;;6.35;;
22786;SDS011;63134;52.020;4.714;2023-05-14T14:56:04;15.35;;;5.43;;
22786;SDS011;63134;52.020;4.714;2023-05-14T14:58:50;11.75;;;5.57;;
22786;SDS011;63134;52.020;4.714;2023-05-14T15:01:35;15.43;;;5.72;;
22786;SDS011;63134;52.020;4.714;2023-05-14T15:04:48;13.63;;;5.78;;
22786;SDS011;63134;52.020;4.714;2023-05-14T15:07:34;18.90;;;5.97;;
22786;SDS011;63134;52.020;4.714;2023-05-14T15:10:19;16.35;;;6.18;;
22786;SDS011;63134;52.020;4.714;2023-05-14T15:13:05;13.07;;;5.60;;
22786;SDS011;63134;52.020;4.714;2023-05-14T15:15:50;15.02;;;5.70;;
22786;SDS011;63134;52.020;4.714;2023-05-14T15:18:36;15.55;;;6.15;;
22786;SDS011;63134;52.020;4.714;2023-05-14T15:21:22;13.85;;;6.57;;
22786;SDS011;63134;52.020;4.714;2023-05-14T15:24:10;16.92;;;6.07;;
22786;SDS011;63134;52.020;4.714;2023-05-14T15:26:59;22.40;;;6.03;;
22786;SDS011;63134;52.020;4.714;2023-05-14T15:29:45;14.40;;;6.20;;
22786;SDS011;63134;52.020;4.714;2023-05-14T15:32:30;16.00;;;5.30;;
22786;SDS011;63134;52.020;4.714;2023-05-14T15:35:18;14.50;;;6.13;;
22786;SDS011;63134;52.020;4.714;2023-05-14T15:38:04;13.50;;;5.78;;
22786;SDS011;63134;52.020;4.714;2023-05-14T15:40:50;12.52;;;5.25;;
22786;SDS011;63134;52.020;4.714;2023-05-14T15:43:35;21.05;;;6.68;;
22786;SDS011;63134;52.020;4.714;2023-05-14T15:46:21;14.38;;;6.07;;
22786;SDS011;63134;52.020;4.714;2023-05-14T15:49:07;14.80;;;5.93;;
22786;SDS011;63134;52.020;4.714;2023-05-14T15:51:55;15.10;;;6.63;;
22786;SDS011;63134;52.020;4.714;2023-05-14T15:54:40;15.18;;;6.78;;
22786;SDS011;63134;52.020;4.714;2023-05-14T15:57:26;13.48;;;6.47;;
22786;SDS011;63134;52.020;4.714;2023-05-14T16:00:12;16.95;;;7.00;;
22786;SDS011;63134;52.020;4.714;2023-05-14T16:02:58;15.70;;;6.53;;
22786;SDS011;63134;52.020;4.714;2023-05-14T16:05:43;14.95;;;7.28;;
22786;SDS011;63134;52.020;4.714;2023-05-14T16:08:29;16.77;;;7.40;;
22786;SDS011;63134;52.020;4.714;2023-05-14T16:11:17;15.52;;;7.35;;
22786;SDS011;63134;52.020;4.714;2023-05-14T16:14:02;14.27;;;7.35;;
22786;SDS011;63134;52.020;4.714;2023-05-14T16:16:48;13.13;;;7.57;;
22786;SDS011;63134;52.020;4.714;2023-05-14T16:19:33;15.35;;;8.32;;
22786;SDS011;63134;52.020;4.714;2023-05-14T16:22:19;14.65;;;7.93;;
22786;SDS011;63134;52.020;4.714;2023-05-14T16:25:04;13.68;;;8.50;;
22786;SDS011;63134;52.020;4.714;2023-05-14T16:27:50;11.63;;;7.78;;